createdAt,value
2022-11-15T00:00:30.892Z,46.3
2022-11-15T00:02:33.977Z,53
2022-11-15T00:04:37.065Z,47.4
2022-11-15T00:07:55.043Z,49.4
2022-11-15T00:09:46.420Z,43.9
2022-11-15T00:11:49.528Z,30.5
2022-11-15T00:13:55.832Z,52.4
2022-11-15T00:15:58.913Z,49.2
2022-11-15T00:18:02.001Z,44.1
2022-11-15T00:20:05.106Z,52.2
2022-11-15T00:22:08.196Z,60.5
2022-11-15T00:24:11.283Z,46
2022-11-15T00:26:14.395Z,46.6
2022-11-15T00:28:20.678Z,49
2022-11-15T00:30:23.773Z,51.8
2022-11-15T00:32:26.869Z,52.7
2022-11-15T00:34:29.965Z,51.9
2022-11-15T00:36:33.054Z,34.6
2022-11-15T00:38:36.142Z,61.7
2022-11-15T00:40:39.246Z,50.2
2022-11-15T00:42:45.568Z,63.8
2022-11-15T00:44:48.667Z,50.7
2022-11-15T00:48:54.872Z,57.4
2022-11-15T00:55:04.160Z,54.6
2022-11-15T00:59:13.989Z,62.6
2022-11-15T01:01:17.168Z,65.3
2022-11-15T01:04:23.331Z,82.5
2022-11-15T01:10:35.844Z,70.3
2022-11-15T01:12:38.934Z,72.1
2022-11-15T01:16:45.129Z,74.7
2022-11-15T01:18:48.218Z,71.9
2022-11-15T01:20:51.290Z,59.4
2022-11-15T01:22:54.381Z,76.2
2022-11-15T01:27:03.772Z,75.3
2022-11-15T01:29:06.865Z,62.5
2022-11-15T01:31:09.976Z,55.1
2022-11-15T01:33:13.088Z,56
2022-11-15T01:35:16.186Z,62.5
2022-11-15T01:37:19.285Z,57.6
2022-11-15T01:39:25.588Z,52.4
2022-11-15T01:41:28.707Z,73.8
2022-11-15T01:45:34.898Z,65.1
2022-11-15T01:47:37.993Z,64.3
2022-11-15T01:51:44.218Z,73.4
2022-11-15T01:53:50.501Z,71.6
2022-11-15T01:55:53.598Z,66.7
2022-11-15T01:57:56.733Z,84.7
2022-11-15T01:58:59.861Z,76
2022-11-15T02:01:03.059Z,55.7
2022-11-15T02:03:06.081Z,63
2022-11-15T02:05:09.224Z,70.3
2022-11-15T02:07:15.629Z,68.8
2022-11-15T02:09:18.611Z,69
2022-11-15T02:11:21.734Z,48.5
2022-11-15T02:13:24.823Z,59.5
2022-11-15T02:15:27.930Z,62.6
2022-11-15T02:17:31.027Z,60.9
2022-11-15T02:19:34.133Z,51.7
2022-11-15T02:21:40.440Z,72.8
2022-11-15T02:23:43.536Z,87.3
2022-11-15T02:25:46.660Z,63.5
2022-11-15T02:29:52.880Z,58.3
2022-11-15T02:31:55.961Z,47.3
2022-11-15T02:33:59.068Z,53.5
2022-11-15T02:36:05.371Z,51.1
2022-11-15T02:38:08.494Z,86.5
2022-11-15T02:40:11.604Z,69.1
2022-11-15T02:42:14.735Z,54.1
2022-11-15T02:44:17.803Z,64.6
2022-11-15T02:46:20.924Z,54.9
2022-11-15T02:48:24.037Z,55.3
2022-11-15T02:50:30.345Z,80.6
2022-11-15T02:52:33.464Z,64.2
2022-11-15T02:54:36.586Z,76.2
2022-11-15T02:57:00.409Z,82.5
2022-11-15T02:59:03.533Z,69.2
2022-11-15T03:03:12.973Z,58.2
2022-11-15T03:05:16.086Z,61.5
2022-11-15T03:07:19.277Z,64.8
2022-11-15T03:11:25.402Z,57.7
2022-11-15T03:13:28.777Z,55.4
2022-11-15T03:15:31.632Z,60.9
2022-11-15T03:17:37.973Z,74.6
2022-11-15T03:19:41.053Z,48.7
2022-11-15T03:21:44.193Z,42.4
2022-11-15T03:23:47.291Z,66.3
2022-11-15T03:25:50.416Z,77.7
2022-11-15T03:29:56.639Z,45.9
2022-11-15T03:32:02.975Z,65.2
2022-11-15T03:34:06.096Z,56.4
2022-11-15T03:36:09.201Z,44.9
2022-11-15T03:38:12.356Z,55.6
2022-11-15T03:40:15.439Z,49.8
2022-11-15T03:42:18.569Z,55.1
2022-11-15T03:44:21.668Z,48.2
2022-11-15T03:46:27.976Z,48.1
2022-11-15T03:48:31.123Z,50.4
2022-11-15T03:50:34.219Z,50.5
2022-11-15T03:51:37.383Z,45.6
2022-11-15T03:55:43.623Z,50.1
2022-11-15T03:57:46.766Z,60.6
2022-11-15T03:59:53.088Z,64.3
2022-11-15T04:01:56.193Z,43
2022-11-15T04:03:59.322Z,57.6
2022-11-15T04:06:02.455Z,43.5
2022-11-15T04:08:05.536Z,64.3
2022-11-15T04:10:08.649Z,45.6
2022-11-15T04:12:11.790Z,59.1
2022-11-15T04:14:18.083Z,62.3
2022-11-15T04:16:21.205Z,62.2
2022-11-15T04:18:24.336Z,69.5
2022-11-15T04:20:27.457Z,62
2022-11-15T04:22:30.577Z,81.9
2022-11-15T04:24:33.694Z,78.6
2022-11-15T04:26:36.824Z,68
2022-11-15T04:28:43.154Z,106.4
2022-11-15T04:30:46.275Z,77.3
2022-11-15T04:32:50.991Z,62.6
2022-11-15T04:34:54.048Z,83.1
2022-11-15T04:36:57.171Z,66.3
2022-11-15T04:39:00.294Z,58.1
2022-11-15T04:41:03.434Z,66.6
2022-11-15T04:43:09.753Z,58
2022-11-15T04:45:12.873Z,59.4
2022-11-15T04:47:15.997Z,52.1
2022-11-15T04:52:25.417Z,54
2022-11-15T04:56:34.878Z,73.8
2022-11-15T05:02:44.227Z,69.1
2022-11-15T05:04:47.364Z,86.8
2022-11-15T05:06:50.561Z,55.2
2022-11-15T05:08:53.607Z,42.9
2022-11-15T05:10:59.946Z,59.4
2022-11-15T05:13:03.045Z,55.8
2022-11-15T05:15:06.182Z,57.2
2022-11-15T05:17:09.295Z,45.6
2022-11-15T05:19:12.426Z,63
2022-11-15T05:21:15.593Z,47.6
2022-11-15T05:23:18.702Z,53.6
2022-11-15T05:25:25.021Z,47.2
2022-11-15T05:27:28.136Z,52.3
2022-11-15T05:29:31.238Z,46.7
2022-11-15T05:31:34.373Z,72.1
2022-11-15T05:33:37.487Z,52.6
2022-11-15T05:37:43.756Z,48.1
2022-11-15T05:39:50.069Z,48
2022-11-15T05:41:53.184Z,50.8
2022-11-15T05:43:56.308Z,48
2022-11-15T05:44:59.482Z,45.1
2022-11-15T05:47:02.605Z,73.7
2022-11-15T05:49:05.724Z,54.3
2022-11-15T05:51:08.872Z,57.1
2022-11-15T05:53:15.193Z,59.3
2022-11-15T05:55:18.319Z,51.4
2022-11-15T05:57:21.442Z,54.2
2022-11-15T05:59:24.566Z,44.4
2022-11-15T06:01:27.673Z,50.4
2022-11-15T06:05:34.706Z,38.9
2022-11-15T06:07:41.064Z,53.4
2022-11-15T06:09:44.190Z,47
2022-11-15T06:11:47.329Z,60.8
2022-11-15T06:13:50.473Z,49.2
2022-11-15T06:15:53.572Z,45.4
2022-11-15T06:17:56.752Z,41
2022-11-15T06:19:59.843Z,51.7
2022-11-15T06:22:06.176Z,57
2022-11-15T06:24:09.297Z,54.9
2022-11-15T06:28:15.564Z,48.5
2022-11-15T06:30:18.692Z,45.4
2022-11-15T06:32:21.800Z,48.3
2022-11-15T06:34:24.932Z,57.1
2022-11-15T06:36:31.265Z,43.7
2022-11-15T06:38:34.360Z,57.4
2022-11-15T06:40:37.495Z,36.1
2022-11-15T06:45:04.464Z,40.7
2022-11-15T06:47:07.589Z,57.2
2022-11-15T06:49:13.930Z,45.8
2022-11-15T06:51:17.051Z,52
2022-11-15T06:53:20.176Z,33.8
2022-11-15T06:55:23.335Z,38.3
2022-11-15T06:57:26.448Z,50.2
2022-11-15T07:01:32.810Z,50.3
2022-11-15T07:03:39.031Z,36.1
2022-11-15T07:13:54.690Z,33.9
2022-11-15T07:18:04.137Z,54
2022-11-15T07:20:07.258Z,36.2
2022-11-15T07:22:10.372Z,44
2022-11-15T07:24:13.510Z,42.7
2022-11-15T07:28:19.763Z,34.1
2022-11-15T07:30:22.881Z,37.4
2022-11-15T07:32:29.250Z,45.4
2022-11-15T07:34:32.358Z,62.3
2022-11-15T07:36:35.492Z,42.2
2022-11-15T07:41:44.915Z,51.9
2022-11-15T07:43:48.056Z,51.1
2022-11-15T07:45:58.818Z,47.7
2022-11-15T07:52:03.791Z,49.2
2022-11-15T07:56:10.030Z,44.3
2022-11-15T08:00:19.519Z,52.4
2022-11-15T08:02:25.334Z,54.4
2022-11-15T08:04:25.746Z,59.6
2022-11-15T08:06:28.862Z,37.8
2022-11-15T08:10:40.249Z,49.1
2022-11-15T08:12:38.286Z,55.5
2022-11-15T08:14:44.615Z,45.5
2022-11-15T08:16:47.717Z,34.7
2022-11-15T08:18:50.836Z,38.5
2022-11-15T08:20:53.959Z,35.3
2022-11-15T08:22:57.096Z,44.5
2022-11-15T08:25:00.205Z,40.7
2022-11-15T08:27:03.352Z,33.3
2022-11-15T08:29:09.670Z,44.4
2022-11-15T08:31:12.792Z,35.8
2022-11-15T08:33:15.909Z,36.9
2022-11-15T08:34:19.075Z,39
2022-11-15T08:38:25.319Z,26.6
2022-11-15T08:40:28.432Z,35.1
2022-11-15T08:44:37.862Z,60.6
2022-11-15T08:46:40.991Z,38.6
2022-11-15T08:50:47.247Z,37.5
2022-11-15T08:52:50.373Z,40
2022-11-15T08:54:53.484Z,36
2022-11-15T08:56:59.833Z,51.6
2022-11-15T08:59:02.949Z,43
2022-11-15T09:01:06.161Z,49.5
2022-11-15T09:03:09.195Z,42.5
2022-11-15T09:05:12.331Z,37.6
2022-11-15T09:09:18.563Z,34.9
2022-11-15T09:13:28.054Z,28.6
2022-11-15T09:23:43.659Z,22.3
2022-11-15T09:27:53.147Z,18.8
2022-11-15T09:29:56.274Z,37.5
2022-11-15T09:30:59.451Z,39.9
2022-11-15T09:33:02.598Z,27
2022-11-15T09:35:05.707Z,19.8
2022-11-15T09:37:08.845Z,41.4
2022-11-15T09:39:15.213Z,31.8
2022-11-15T09:43:21.456Z,17.7
2022-11-15T09:45:24.572Z,35.6
2022-11-15T09:47:27.705Z,17.4
2022-11-15T09:49:30.806Z,22.4
2022-11-15T09:51:33.959Z,21.8
2022-11-15T09:54:18.619Z,12.8
2022-11-15T09:55:43.442Z,39.6
2022-11-15T09:57:46.574Z,21.6
2022-11-15T10:01:52.895Z,22
2022-11-15T10:03:55.963Z,19.6
2022-11-15T10:05:59.115Z,14.8
2022-11-15T10:08:05.361Z,11.2
2022-11-15T10:10:08.488Z,17.5
2022-11-15T10:12:11.603Z,12.9
2022-11-15T10:14:14.647Z,11.2
2022-11-15T10:18:20.744Z,10.1
2022-11-15T10:20:23.831Z,9.2
2022-11-15T10:22:29.891Z,10.4
2022-11-15T10:24:32.919Z,8.5
2022-11-15T10:26:35.977Z,9.5
2022-11-15T10:29:01.041Z,15.3
2022-11-15T10:31:04.101Z,11.7
2022-11-15T10:33:07.137Z,10
2022-11-15T10:35:13.270Z,9.4
2022-11-15T10:37:16.299Z,32.9
2022-11-15T10:39:19.391Z,7.2
2022-11-15T10:41:22.416Z,12.9
2022-11-15T10:43:25.435Z,6.2
2022-11-15T10:45:28.474Z,13.4
2022-11-15T10:47:36.042Z,9.1
2022-11-15T10:49:37.672Z,9
2022-11-15T10:53:43.731Z,10
2022-11-15T10:55:46.767Z,9.4
2022-11-15T10:57:49.803Z,2.7
2022-11-15T10:59:52.842Z,6.3
2022-11-15T11:01:55.869Z,7.7
2022-11-15T11:04:02.042Z,4.4
2022-11-15T11:06:05.073Z,7.4
2022-11-15T11:08:08.100Z,9.9
2022-11-15T11:10:29.284Z,2
2022-11-15T11:12:14.171Z,16.6
2022-11-15T11:14:17.194Z,7.1
2022-11-15T11:16:20.220Z,3.8
2022-11-15T11:18:26.371Z,14.2
2022-11-15T11:22:32.435Z,4.4
2022-11-15T11:23:35.522Z,20.5
2022-11-15T11:25:38.554Z,10.3
2022-11-15T11:27:41.586Z,4.9
2022-11-15T11:29:44.625Z,6.6
2022-11-15T11:31:50.773Z,10.3
2022-11-15T11:33:53.815Z,4.7
2022-11-15T11:35:56.841Z,4.8
2022-11-15T11:37:59.901Z,9.2
2022-11-15T11:40:07.496Z,5.4
2022-11-15T11:42:05.950Z,4
2022-11-15T11:44:08.991Z,7.9
2022-11-15T11:46:15.131Z,5.1
2022-11-15T11:48:18.179Z,2.8
2022-11-15T11:50:21.161Z,3.1
2022-11-15T11:52:24.197Z,9.6
2022-11-15T11:54:27.229Z,4.4
2022-11-15T11:56:30.265Z,10.2
2022-11-15T12:00:39.443Z,2.2
2022-11-15T12:02:42.792Z,17.1
2022-11-15T12:04:45.504Z,8.1
2022-11-15T12:06:48.573Z,7.5
2022-11-15T12:08:51.576Z,9.7
2022-11-15T12:10:54.563Z,2.3
2022-11-15T12:12:57.577Z,3.9
2022-11-15T12:15:03.713Z,1.8
2022-11-15T12:17:06.761Z,4.6
2022-11-15T12:19:09.769Z,7.6
2022-11-15T12:20:12.951Z,7.9
2022-11-15T12:22:15.859Z,5.5
2022-11-15T12:26:21.922Z,1.1
2022-11-15T12:28:28.053Z,13.1
2022-11-15T12:32:34.119Z,3.8
2022-11-15T12:34:37.125Z,0.6
2022-11-15T12:36:40.174Z,4.5
2022-11-15T12:40:46.233Z,6.2
2022-11-15T12:42:52.376Z,3.3
2022-11-15T12:44:55.406Z,7.3
2022-11-15T12:46:58.457Z,0.6
2022-11-15T13:01:22.859Z,4.6
2022-11-15T13:07:31.941Z,7.3
2022-11-15T13:09:34.966Z,1.8
2022-11-15T13:13:44.123Z,3.2
2022-11-15T13:15:47.139Z,0.7
2022-11-15T13:16:50.208Z,2.1
2022-11-15T13:18:53.265Z,3.9
2022-11-15T13:21:01.971Z,8.1
2022-11-15T13:22:59.324Z,1.3
2022-11-15T13:25:05.482Z,1.5
2022-11-15T13:27:08.516Z,1.8
2022-11-15T13:29:11.539Z,7.8
2022-11-15T13:31:14.601Z,0.4
2022-11-15T13:33:17.620Z,1
2022-11-15T13:35:20.664Z,5.8
2022-11-15T13:37:23.707Z,6
2022-11-15T13:39:29.840Z,0.9
2022-11-15T13:41:32.877Z,3.5
2022-11-15T13:43:35.938Z,3.7
2022-11-15T13:45:39.044Z,9.3
2022-11-15T13:47:41.993Z,3.4
2022-11-15T13:49:45.045Z,8.6
2022-11-15T13:51:48.076Z,5.7
2022-11-15T13:53:54.231Z,3.6
2022-11-15T13:55:57.284Z,6
2022-11-15T13:58:00.313Z,1.5
2022-11-15T14:00:03.360Z,12
2022-11-15T14:02:06.398Z,4.1
2022-11-15T14:04:09.531Z,0.6
2022-11-15T14:06:12.665Z,2.1
2022-11-15T14:08:18.911Z,18.3
2022-11-15T14:10:22.044Z,4.1
2022-11-15T14:12:25.201Z,6.6
2022-11-15T14:14:54.916Z,5.8
2022-11-15T14:16:58.102Z,1.8
2022-11-15T14:19:00.968Z,1.9
2022-11-15T14:21:07.360Z,5.7
2022-11-15T14:25:13.523Z,1.6
2022-11-15T14:27:16.540Z,1.6
2022-11-15T14:29:19.672Z,7.7
2022-11-15T14:31:22.802Z,4
2022-11-15T14:33:25.944Z,2.4
2022-11-15T14:35:32.305Z,5.2
2022-11-15T14:37:35.455Z,13.5
2022-11-15T14:39:38.596Z,10.3
2022-11-15T14:41:41.713Z,4.2
2022-11-15T14:43:44.882Z,6.2
2022-11-15T14:45:48.014Z,2.3
2022-11-15T14:47:51.136Z,6
2022-11-15T14:49:57.562Z,2.8
2022-11-15T14:52:00.642Z,10.7
2022-11-15T14:54:03.760Z,2.5
2022-11-15T14:56:06.902Z,11.9
2022-11-15T14:58:10.040Z,3.8
2022-11-15T15:00:13.172Z,8.2
2022-11-15T15:02:16.297Z,3.5
2022-11-15T15:04:22.652Z,3.4
2022-11-15T15:06:25.795Z,7.2
2022-11-15T15:08:29.068Z,2.5
2022-11-15T15:09:32.117Z,7.1
2022-11-15T15:11:35.236Z,5.1
2022-11-15T15:15:41.529Z,6.9
2022-11-15T15:17:47.877Z,1.2
2022-11-15T15:19:51.028Z,7.1
2022-11-15T15:21:54.158Z,14.1
2022-11-15T15:23:57.303Z,5.1
2022-11-15T15:26:00.427Z,10.5
2022-11-15T15:28:03.584Z,5.8
2022-11-15T15:30:06.721Z,4.8
2022-11-15T15:32:13.075Z,2.3
2022-11-15T15:34:17.007Z,7.5
2022-11-15T15:36:19.375Z,3.5
2022-11-15T15:38:22.479Z,1.9
2022-11-15T15:40:25.630Z,6.4
2022-11-15T15:42:29.759Z,14.3
2022-11-15T15:44:31.872Z,8.5
2022-11-15T15:46:38.009Z,3.1
2022-11-15T15:48:41.053Z,8
2022-11-15T15:50:44.105Z,6.8
2022-11-15T15:52:47.118Z,1.3
2022-11-15T15:54:50.152Z,1.8
2022-11-15T15:56:56.167Z,2.1
2022-11-15T15:58:56.233Z,5.9
2022-11-15T16:01:02.412Z,6.2
2022-11-15T16:03:05.418Z,12.6
2022-11-15T16:05:08.420Z,7.1
2022-11-15T16:08:14.533Z,8.4
2022-11-15T16:10:17.560Z,3.7
2022-11-15T16:14:26.757Z,9.9
2022-11-15T16:16:29.796Z,6.2
2022-11-15T16:18:33.152Z,5.8
2022-11-15T16:20:35.852Z,26.5
2022-11-15T16:22:40.444Z,4.8
2022-11-15T16:24:43.435Z,8
2022-11-15T16:26:46.485Z,6.4
2022-11-15T16:28:52.606Z,7.1
2022-11-15T16:35:01.738Z,2.4
2022-11-15T16:37:04.747Z,5.8
2022-11-15T16:43:16.974Z,4.2
2022-11-15T16:47:23.034Z,8.2
2022-11-15T16:49:26.066Z,3.7
2022-11-15T16:53:32.128Z,5.2
2022-11-15T16:55:35.181Z,6.2
2022-11-15T16:57:41.330Z,9.4
2022-11-15T16:59:44.376Z,9.7
2022-11-15T17:01:47.393Z,0.6
2022-11-15T17:02:50.493Z,5.1
2022-11-15T17:04:53.523Z,10.7
2022-11-15T17:06:56.604Z,8.2
2022-11-15T17:08:59.582Z,10.5
2022-11-15T17:11:05.721Z,3.9
2022-11-15T17:13:08.758Z,3
2022-11-15T17:15:11.884Z,5.7
2022-11-15T17:17:15.037Z,7.4
2022-11-15T17:19:18.163Z,6.4
2022-11-15T17:21:21.320Z,3.8
2022-11-15T17:23:24.452Z,15
2022-11-15T17:25:30.807Z,3.4
2022-11-15T17:27:33.922Z,15.9
2022-11-15T17:29:37.056Z,2.7
2022-11-15T17:31:40.188Z,4.3
2022-11-15T17:33:43.327Z,1.3
2022-11-15T17:35:46.475Z,13.8
2022-11-15T17:37:49.586Z,10.9
2022-11-15T17:39:56.024Z,7.9
2022-11-15T17:44:02.224Z,5.5
2022-11-15T17:46:05.371Z,3.7
2022-11-15T17:48:08.521Z,7.3
2022-11-15T17:50:11.675Z,23
2022-11-15T17:52:14.763Z,2.4
2022-11-15T17:54:21.138Z,4.4
2022-11-15T17:56:24.270Z,12.2
2022-11-15T17:58:27.393Z,6.9
2022-11-15T18:00:57.227Z,6.3
2022-11-15T18:03:00.298Z,5.8
2022-11-15T18:05:03.450Z,14.2
2022-11-15T18:07:09.758Z,9.2
2022-11-15T18:09:12.831Z,6.9
2022-11-15T18:13:19.118Z,9.3
2022-11-15T18:15:22.249Z,7.6
2022-11-15T18:17:25.390Z,10.9
2022-11-15T18:19:28.520Z,13.4
2022-11-15T18:23:38.016Z,2
2022-11-15T18:25:41.171Z,2.5
2022-11-15T18:27:44.283Z,12.7
2022-11-15T18:29:47.426Z,6
2022-11-15T18:31:50.567Z,3.3
2022-11-15T18:33:53.701Z,8.4
2022-11-15T18:36:00.092Z,3.7
2022-11-15T18:38:03.199Z,14.6
2022-11-15T18:40:06.333Z,10
2022-11-15T18:42:09.477Z,4.6
2022-11-15T18:44:12.586Z,11
2022-11-15T18:46:15.706Z,6.3
2022-11-15T18:48:18.834Z,6
2022-11-15T18:50:25.202Z,9.4
2022-11-15T18:52:28.313Z,7.8
2022-11-15T18:54:31.850Z,2.8
2022-11-15T18:55:34.591Z,5.6
2022-11-15T18:57:37.723Z,9
2022-11-15T18:59:40.844Z,16.3
2022-11-15T19:01:43.980Z,4.6
2022-11-15T19:03:50.289Z,7.9
2022-11-15T19:05:53.428Z,2.8
2022-11-15T19:07:56.559Z,10.8
2022-11-15T19:09:59.675Z,6.4
2022-11-15T19:12:02.826Z,6.1
2022-11-15T19:14:05.971Z,3.5
2022-11-15T19:18:15.462Z,6.8
2022-11-15T19:20:18.565Z,6.5
2022-11-15T19:22:21.716Z,8.8
2022-11-15T19:24:24.854Z,4.8
2022-11-15T19:26:27.974Z,6
2022-11-15T19:28:31.101Z,6
2022-11-15T19:30:34.212Z,6.9
2022-11-15T19:32:40.558Z,14.8
2022-11-15T19:34:43.685Z,16.1
2022-11-15T19:38:49.978Z,10.3
2022-11-15T19:40:53.094Z,11
2022-11-15T19:42:56.237Z,7.4
2022-11-15T19:44:59.371Z,9.8
2022-11-15T19:47:05.732Z,11.3
2022-11-15T19:49:08.849Z,6.1
2022-11-15T19:51:11.977Z,5.9
2022-11-15T19:58:24.531Z,13.5
2022-11-15T20:02:34.040Z,7.8
2022-11-15T20:04:37.134Z,11.1
2022-11-15T20:10:46.545Z,8.7
2022-11-15T20:12:49.689Z,10.7
2022-11-15T20:14:56.045Z,13.1
2022-11-15T20:16:59.159Z,19.6
2022-11-15T20:19:02.307Z,17
2022-11-15T20:21:05.409Z,23.8
2022-11-15T20:23:08.533Z,7.6
2022-11-15T20:25:11.662Z,19.7
2022-11-15T20:27:14.800Z,5.3
2022-11-15T20:29:21.147Z,17.6
2022-11-15T20:31:24.254Z,13.6
2022-11-15T20:37:33.659Z,11.6
2022-11-15T20:43:46.317Z,8.5
2022-11-15T20:45:49.424Z,14.7
2022-11-15T20:47:52.559Z,14.2
2022-11-15T20:48:55.731Z,16.1
2022-11-15T20:50:58.860Z,8.8
2022-11-15T20:53:01.990Z,9.3
2022-11-15T20:55:05.124Z,11.1
2022-11-15T20:57:11.450Z,13.6
2022-11-15T20:59:14.599Z,12.2
2022-11-15T21:01:17.876Z,17.5
2022-11-15T21:03:20.844Z,15.5
2022-11-15T21:05:23.953Z,12.6
2022-11-15T21:07:27.135Z,12.7
2022-11-15T21:11:36.578Z,13.5
2022-11-15T21:13:39.697Z,14.4
2022-11-15T21:15:42.833Z,13.5
2022-11-15T21:17:45.977Z,12.1
2022-11-15T21:19:49.118Z,17
2022-11-15T21:21:52.256Z,12.3
2022-11-15T21:23:55.388Z,17.1
2022-11-15T21:26:01.722Z,13.5
2022-11-15T21:28:04.848Z,11.7
2022-11-15T21:30:07.981Z,13
2022-11-15T21:32:11.132Z,14
2022-11-15T21:34:14.248Z,15.5
2022-11-15T21:36:17.392Z,15.2
2022-11-15T21:38:20.519Z,14.3
2022-11-15T21:40:27.244Z,9.8
2022-11-15T21:42:30.389Z,12.4
2022-11-15T21:44:33.510Z,23.7
2022-11-15T21:51:03.903Z,15.5
2022-11-15T21:55:13.408Z,16.4
2022-11-15T21:57:16.562Z,15.6
2022-11-15T21:59:19.684Z,22.3
2022-11-15T22:01:22.957Z,22.2
2022-11-15T22:03:25.975Z,16.3
2022-11-15T22:05:29.196Z,14.9
2022-11-15T22:07:35.486Z,20.1
2022-11-15T22:09:38.575Z,22.7
2022-11-15T22:11:41.712Z,32
2022-11-15T22:13:44.829Z,19.3
2022-11-15T22:15:47.993Z,16
2022-11-15T22:17:52.671Z,22.5
2022-11-15T22:19:55.754Z,18.1
2022-11-15T22:22:02.175Z,15.5
2022-11-15T22:24:05.233Z,13.5
2022-11-15T22:26:08.356Z,23.9
2022-11-15T22:28:11.503Z,18.8
2022-11-15T22:30:14.635Z,26.7
2022-11-15T22:32:17.773Z,13.9
2022-11-15T22:34:20.900Z,15
2022-11-15T22:36:32.891Z,33.1
2022-11-15T22:38:30.434Z,19.3
2022-11-15T22:40:33.544Z,25.1
2022-11-15T22:41:36.707Z,22.2
2022-11-15T22:43:39.847Z,19.1
2022-11-15T22:45:43.000Z,17
2022-11-15T22:47:46.102Z,17.2
2022-11-15T22:49:52.486Z,20.4
2022-11-15T22:51:55.576Z,22.7
2022-11-15T22:56:01.858Z,26
2022-11-15T22:58:04.946Z,30.2
2022-11-15T23:00:08.134Z,31.2
2022-11-15T23:08:23.823Z,25.6
2022-11-15T23:10:26.952Z,35
2022-11-15T23:12:30.119Z,44.8
2022-11-15T23:14:33.217Z,25.1
2022-11-15T23:16:36.372Z,29
2022-11-15T23:18:42.694Z,25.7
2022-11-15T23:20:45.827Z,21
2022-11-15T23:22:48.971Z,21.9
2022-11-15T23:24:52.117Z,21.2
2022-11-15T23:26:55.205Z,24.2
2022-11-15T23:28:58.318Z,34.8
2022-11-15T23:31:01.437Z,33.4
2022-11-15T23:33:07.776Z,31.1
2022-11-15T23:35:10.916Z,30.4
2022-11-15T23:37:14.060Z,28.8
2022-11-15T23:38:17.211Z,41.2
2022-11-15T23:40:20.357Z,31.2
2022-11-15T23:42:23.452Z,26.7
2022-11-15T23:44:26.603Z,27.9
2022-11-15T23:46:32.924Z,37.8
2022-11-15T23:48:36.183Z,30.6
2022-11-15T23:50:39.185Z,35.2
2022-11-15T23:52:42.319Z,29.1
2022-11-15T23:54:45.441Z,24.5
2022-11-15T23:56:48.567Z,31.1
2022-11-15T23:58:51.697Z,37.5
